Latest Weather Observations for Nhill Aerodrome

IDV60801

Issued at 10:22 am EST Tuesday 26 May 2020 (issued every 10 minutes, with the page automatically refreshed every 10 minutes)

About weather observations | Map of weather stations | Latest weather observations for VIC | Other Formats
Station Details ID: 078015 Name: NHILL AERODROME Lat: -36.31 Lon: 141.65 Height: 138.9 m
Data from the previous 72 hours. | See also: Recent months at Nhill Aerodrome
Date/Time
EST
Temp
°C
App
Temp
°C
Dew
Point
°C
Rel
Hum
%
Delta-T
°C
Wind Press
QNH
hPa
Press
MSL
hPa
Rain since
9am
mm
Dir  Spd
km/h
Gust
km/h
Spd
kts
Gust
kts
26/10:00am 10.0 7.1 6.5 79 1.6 NNE 11 17 6 9 1023.8 1023.8 0.0
26/09:30am 8.6 5.2 6.1 84 1.2 NE 13 20 7 11 1023.6 1023.6 0.0
26/09:00am 7.2 4.1 5.5 89 0.8 NE 11 17 6 9 1023.8 1023.8 0.0
26/08:30am 5.7 1.2 4.2 90 0.6 ENE 17 20 9 11 1023.4 1023.4 0.0
26/08:00am 4.9 1.0 3.4 90 0.6 ENE 13 17 7 9 1023.4 1023.4 0.0
26/07:30am 4.4 0.0 2.9 90 0.6 ENE 15 19 8 10 1023.5 1023.5 0.0
26/07:00am 5.3 1.5 3.8 90 0.6 ENE 13 19 7 10 1023.2 1023.2 0.0
26/06:30am 4.6 0.6 2.9 89 0.7 ENE 13 15 7 8 1023.3 1023.3 0.0
26/06:00am 5.1 0.8 3.1 87 0.8 ENE 15 19 8 10 1022.9 1022.9 0.0
26/05:30am 5.9 1.7 3.9 87 0.9 ENE 15 17 8 9 1022.7 1022.7 0.0
26/05:00am 5.3 3.4 3.0 85 0.9 NNE 2 6 1 3 1023.1 1023.1 0.0
26/04:30am 6.1 2.3 3.8 85 1.0 ENE 13 17 7 9 1023.0 1023.0 0.0
26/04:00am 6.5 3.9 4.0 84 1.1 NNE 7 9 4 5 1023.1 1023.1 0.0
26/03:30am 6.5 4.0 4.0 84 1.1 NNE 6 9 3 5 1023.3 1023.3 0.0
26/03:00am 7.1 4.2 4.4 83 1.2 NNE 9 13 5 7 1023.5 1023.5 0.0
26/02:30am 6.8 3.1 4.3 84 1.1 NE 13 19 7 10 1023.1 1023.1 0.0
26/02:00am 6.3 2.5 4.0 85 1.0 ENE 13 17 7 9 1023.1 1023.1 0.0
26/01:30am 6.0 2.1 3.5 84 1.1 ENE 13 15 7 8 1023.1 1023.1 0.0
26/01:00am 6.1 2.9 3.3 82 1.2 ENE 9 13 5 7 1023.2 1023.2 0.0
26/12:30am 6.8 4.3 3.6 80 1.4 NNE 6 9 3 5 1023.2 1023.2 0.0
26/12:00am 7.0 3.6 3.8 80 1.4 E 11 17 6 9 1022.8 1022.8 0.0
 
Date/Time
EST
Temp
°C
App
Temp
°C
Dew
Point
°C
Rel
Hum
%
Delta-T
°C
Wind Press
QNH
hPa
Press
MSL
hPa
Rain since
9am
mm
Dir  Spd
km/h
Gust
km/h
Spd
kts
Gust
kts
25/11:30pm 7.2 3.0 4.0 80 1.4 E 15 17 8 9 1022.7 1022.7 0.0
25/11:00pm 7.4 2.9 4.4 81 1.3 E 17 20 9 11 1022.7 1022.7 0.0
25/10:30pm 7.9 3.1 4.8 81 1.4 E 19 22 10 12 1022.8 1022.8 0.0
25/10:00pm 8.1 3.4 5.2 82 1.3 E 19 20 10 11 1023.2 1023.2 0.0
25/09:30pm 8.6 4.7 5.5 81 1.4 E 15 17 8 9 1023.4 1023.4 0.0
25/09:00pm 8.2 5.0 5.0 80 1.4 ESE 11 13 6 7 1023.7 1023.7 0.0
25/08:30pm 8.4 6.1 4.6 77 1.7 S 6 6 3 3 1023.8 1023.8 0.0
25/08:00pm 8.0 5.1 4.4 78 1.6 SE 9 13 5 7 1023.7 1023.7 0.0
25/07:30pm 9.4 7.2 5.2 75 1.9 ENE 6 7 3 4 1023.7 1023.7 0.0
25/07:00pm 9.7 8.5 4.7 71 2.2 CALM 0 0 0 0 1023.9 1023.9 0.0
25/06:30pm 11.3 9.5 5.2 66 2.8 ENE 4 7 2 4 1023.7 1023.7 0.0
25/06:00pm 11.7 10.5 4.7 62 3.2 CALM 0 0 0 0 1023.5 1023.5 0.0
25/05:30pm 13.3 10.8 4.7 56 4.0 ENE 7 9 4 5 1023.1 1023.1 0.0
25/05:00pm 14.3 11.9 5.4 55 4.2 ENE 7 9 4 5 1023.0 1023.0 0.0
25/04:30pm 15.0 12.2 5.0 51 4.7 E 9 13 5 7 1023.0 1023.0 0.0
25/04:00pm 15.3 12.9 5.2 51 4.8 ESE 7 13 4 7 1023.1 1023.1 0.0
25/03:30pm 15.1 12.8 4.8 50 4.9 SE 6 13 3 7 1023.4 1023.4 0.0
25/03:00pm 15.2 13.0 5.1 51 4.8 E 6 7 3 4 1023.5 1023.5 0.0
25/02:30pm 15.1 13.0 5.6 53 4.6 SSW 6 9 3 5 1023.5 1023.5 0.0
25/02:00pm 15.1 12.7 5.3 52 4.6 WSW 7 13 4 7 1023.8 1023.8 0.0
25/01:30pm 15.2 13.5 5.7 53 4.6 NNE 4 9 2 5 1023.9 1023.9 0.0
25/01:00pm 15.2 13.2 6.2 55 4.4 ESE 6 9 3 5 1024.3 1024.4 0.0
25/12:30pm 13.8 10.5 6.2 60 3.7 ENE 13 19 7 10 1024.4 1024.5 0.0
25/12:00pm 13.4 9.2 5.6 59 3.7 E 17 22 9 12 1024.7 1024.8 0.0
25/11:30am 13.0 8.8 5.7 61 3.5 ENE 17 24 9 13 1024.8 1024.9 0.0
25/11:00am 12.5 8.0 6.1 65 3.0 E 19 26 10 14 1024.7 1024.8 0.0
25/10:30am 11.9 7.9 6.6 70 2.5 ESE 17 22 9 12 1024.8 1024.9 0.0
25/10:00am 10.8 6.7 6.2 73 2.2 ESE 17 22 9 12 1024.7 1024.8 0.0
25/09:30am 9.6 4.5 6.0 78 1.7 E 22 28 12 15 1024.3 1024.4 0.0
25/09:00am 8.3 3.5 5.6 83 1.2 E 20 26 11 14 1024.2 1024.3 0.0
25/08:30am 7.2 3.2 4.9 85 1.0 ESE 15 20 8 11 1024.2 1024.3 0.0
25/08:00am 6.8 2.0 4.6 86 1.0 E 19 22 10 12 1023.7 1023.7 0.0
25/07:30am 6.3 1.3 4.5 88 0.8 E 20 24 11 13 1023.6 1023.6 0.0
25/07:00am 5.7 3.0 3.9 88 0.8 S 7 9 4 5 1024.2 1024.3 0.0
25/06:30am 6.1 2.7 4.1 87 0.9 ESE 11 13 6 7 1023.9 1023.9 0.0
25/06:00am 7.4 3.4 5.0 85 1.1 ESE 15 19 8 10 1024.0 1024.0 0.0
25/05:30am 8.3 3.8 6.3 87 0.9 ESE 19 22 10 12 1023.7 1023.7 0.0
25/05:00am 7.9 5.0 6.5 91 0.6 SE 11 15 6 8 1023.7 1023.7 0.0
25/04:30am 7.7 4.4 6.5 92 0.6 SE 13 17 7 9 1023.7 1023.7 0.0
25/04:00am 7.0 4.3 5.8 92 0.5 SSE 9 13 5 7 1024.0 1024.0 0.0
25/03:30am 7.0 3.5 5.6 91 0.6 SSE 13 15 7 8 1024.3 1024.4 0.0
25/03:00am 7.4 4.8 5.9 90 0.7 SE 9 13 5 7 1024.6 1024.7 0.0
25/02:30am 7.9 4.2 6.2 89 0.8 S 15 20 8 11 1025.1 1025.2 0.0
25/02:00am 8.9 5.3 6.9 87 0.9 SSW 15 19 8 10 1025.5 1025.6 0.0
25/01:30am 9.1 5.5 6.9 86 1.0 SSW 15 19 8 10 1025.7 1025.8 0.0
25/01:00am 9.3 6.1 6.9 85 1.1 SSW 13 17 7 9 1025.8 1025.9 0.0
25/12:30am 9.4 6.2 6.8 84 1.2 SSW 13 15 7 8 1025.7 1025.8 0.0
25/12:00am 9.4 6.5 6.7 83 1.3 S 11 20 6 11 1025.5 1025.6 0.0
 
Date/Time
EST
Temp
°C
App
Temp
°C
Dew
Point
°C
Rel
Hum
%
Delta-T
°C
Wind Press
QNH
hPa
Press
MSL
hPa
Rain since
9am
mm
Dir  Spd
km/h
Gust
km/h
Spd
kts
Gust
kts
24/11:30pm 9.4 6.5 6.7 83 1.3 S 11 15 6 8 1025.1 1025.2 0.0
24/11:00pm 9.5 6.7 6.8 83 1.3 S 11 15 6 8 1025.3 1025.4 0.0
24/10:30pm 9.6 6.8 6.9 83 1.3 S 11 15 6 8 1025.5 1025.6 0.0
24/10:00pm 9.7 6.4 6.6 81 1.4 S 13 15 7 8 1025.1 1025.2 0.0
24/09:30pm 9.8 6.5 6.3 79 1.6 S 13 15 7 8 1025.0 1025.1 0.0
24/09:00pm 10.3 6.8 5.5 72 2.2 S 13 17 7 9 1024.7 1024.8 0.0
24/08:30pm 10.2 6.7 5.4 72 2.2 SSE 13 19 7 10 1024.4 1024.5 0.0
24/08:00pm 10.2 6.3 5.2 71 2.3 SSE 15 20 8 11 1024.4 1024.5 0.0
24/07:30pm 10.3 5.4 4.9 69 2.5 SSE 20 26 11 14 1024.2 1024.3 0.0
24/07:00pm 10.3 3.8 4.5 67 2.6 SSE 28 37 15 20 1024.2 1024.3 0.0
24/06:30pm 10.4 5.5 5.0 69 2.5 SSE 20 26 11 14 1024.1 1024.2 0.0
24/06:00pm 10.7 5.4 5.0 68 2.6 SSE 22 32 12 17 1023.9 1023.9 0.0
24/05:30pm 11.0 6.1 5.1 67 2.7 S 20 30 11 16 1023.5 1023.5 0.0
24/05:00pm 11.1 5.3 4.6 64 2.9 SSE 24 33 13 18 1023.4 1023.4 0.0
24/04:30pm 11.3 4.8 4.7 64 3.0 SSE 28 39 15 21 1023.2 1023.2 0.0
24/04:00pm 11.4 5.6 4.6 63 3.1 S 24 37 13 20 1023.4 1023.4 0.0
24/03:30pm 11.3 4.4 4.7 64 3.0 S 30 37 16 20 1023.4 1023.4 0.0
24/03:00pm 11.6 5.6 5.3 65 2.9 S 26 33 14 18 1023.4 1023.4 0.0
24/02:30pm 11.3 4.5 5.2 66 2.8 SSW 30 37 16 20 1023.8 1023.8 0.0
24/02:00pm 11.4 4.7 5.5 67 2.7 S 30 37 16 20 1023.9 1023.9 0.0
24/01:30pm 11.3 4.8 6.4 72 2.3 S 30 35 16 19 1023.8 1023.8 0.0
24/01:00pm 11.0 7.3 9.3 89 0.9 SSE 19 24 10 13 1024.0 1024.0 0.0
24/12:30pm 10.7 6.3 7.2 79 1.7 S 20 33 11 18 1024.3 1024.4 0.0
24/12:00pm 11.0 6.7 7.9 81 1.5 S 20 30 11 16 1024.3 1024.4 0.0
24/11:30am 10.9 5.5 6.5 74 2.1 S 24 39 13 21 1024.5 1024.6 0.0
24/11:00am 10.9 5.5 6.5 74 2.1 S 24 32 13 17 1024.6 1024.7 0.0
24/10:30am 11.2 5.2 5.5 68 2.6 S 26 35 14 19 1024.3 1024.4 0.0
24/10:00am 11.0 4.9 4.9 66 2.8 S 26 32 14 17 1024.2 1024.3 0.0
24/09:30am 10.7 4.9 4.6 66 2.8 SSE 24 30 13 16 1024.2 1024.3 0.0
24/09:00am 10.1 5.1 4.5 68 2.5 S 20 28 11 15 1024.2 1024.3 0.2
24/08:30am 9.7 3.8 4.1 68 2.5 SSE 24 35 13 19 1024.0 1024.0 0.2
24/08:00am 9.5 2.5 3.9 68 2.5 SSE 30 39 16 21 1023.7 1023.7 0.2
24/07:30am 9.4 2.5 4.4 71 2.2 SSE 30 39 16 21 1023.3 1023.3 0.2
24/07:00am 9.0 4.4 6.3 83 1.2 S 20 30 11 16 1022.8 1022.8 0.2
24/06:30am 8.7 4.8 7.2 90 0.7 S 17 24 9 13 1022.6 1022.6 0.2
24/06:00am 8.4 4.5 7.0 91 0.7 SSW 17 24 9 13 1022.5 1022.5 0.2
24/05:30am 8.5 4.0 7.1 91 0.7 SSW 20 26 11 14 1022.4 1022.4 0.2
24/05:00am 8.4 4.5 7.0 91 0.7 SW 17 20 9 11 1022.1 1022.1 0.2
24/04:30am 8.5 5.0 7.0 90 0.7 SW 15 20 8 11 1021.9 1021.9 0.2
24/04:00am 8.4 5.2 6.9 90 0.7 SSW 13 17 7 9 1021.6 1021.6 0.2
24/03:30am 8.6 4.6 6.6 87 0.9 SSW 17 20 9 11 1021.6 1021.6 0.2
24/03:00am 9.3 4.9 6.4 82 1.3 S 19 24 10 13 1021.6 1021.6 0.2
24/02:30am 10.4 5.2 7.1 80 1.6 S 24 39 13 21 1021.6 1021.6 0.2
24/02:00am 10.4 4.7 6.5 77 1.8 S 26 35 14 19 1021.6 1021.6 0.2
24/01:30am 10.2 6.2 6.7 79 1.7 S 17 22 9 12 1021.5 1021.5 0.2
24/01:00am 10.1 5.3 7.3 83 1.3 SSW 22 32 12 17 1021.5 1021.5 0.2
24/12:30am 9.9 5.6 8.0 88 0.9 S 20 26 11 14 1021.7 1021.7 0.2
24/12:00am 10.0 4.9 7.6 85 1.2 SSW 24 28 13 15 1021.6 1021.6 0.2
 
Date/Time
EST
Temp
°C
App
Temp
°C
Dew
Point
°C
Rel
Hum
%
Delta-T
°C
Wind Press
QNH
hPa
Press
MSL
hPa
Rain since
9am
mm
Dir  Spd
km/h
Gust
km/h
Spd
kts
Gust
kts
23/11:30pm 10.6 6.0 6.7 77 1.9 S 20 26 11 14 1021.6 1021.6 0.2
23/11:00pm 10.6 5.2 6.2 74 2.1 S 24 37 13 20 1021.5 1021.5 0.2
23/10:30pm 10.7 4.5 6.1 73 2.2 S 28 39 15 21 1021.5 1021.5 0.2
23/10:00pm 10.8 5.4 8.0 83 1.4 SSW 26 33 14 18 1021.5 1021.5 0.2
23/09:30pm 10.8 6.1 9.1 89 0.9 SSW 24 32 13 17 1021.4 1021.4 0.2
23/09:00pm 11.0 7.3 9.4 90 0.8 SSW 19 24 10 13 1021.1 1021.1 0.2
23/08:30pm 11.2 6.5 9.1 87 1.1 SSW 24 30 13 16 1020.9 1020.9 0.2
23/08:00pm 11.4 6.8 9.8 90 0.8 SSW 24 32 13 17 1020.7 1020.7 0.2
23/07:30pm 11.6 6.6 9.7 88 1.0 SSW 26 33 14 18 1020.5 1020.6 0.2
23/07:00pm 12.0 8.7 9.7 86 1.2 SSW 17 26 9 14 1020.1 1020.2 0.2
23/06:30pm 12.0 8.7 9.4 84 1.3 SSW 17 20 9 11 1019.8 1019.9 0.2
23/06:00pm 12.5 8.6 9.5 82 1.5 SSW 20 26 11 14 1019.6 1019.7 0.2
23/05:30pm 12.8 9.0 9.8 82 1.5 SSW 20 28 11 15 1019.3 1019.4 0.2
23/05:00pm 13.2 8.6 9.5 78 1.9 S 24 32 13 17 1019.1 1019.2 0.2
23/04:30pm 13.9 8.8 9.3 74 2.4 S 26 35 14 19 1018.8 1018.9 0.2
23/04:00pm 14.4 9.1 9.8 74 2.4 S 28 37 15 20 1018.6 1018.7 0.2
23/03:30pm 14.2 8.1 9.6 74 2.4 SSW 32 41 17 22 1018.6 1018.7 0.2
23/03:00pm 13.9 7.8 9.7 76 2.2 SSW 32 39 17 21 1018.6 1018.7 0.2
23/02:30pm 14.6 9.2 9.4 71 2.7 SSW 28 39 15 21 1018.5 1018.6 0.2
23/02:00pm 15.0 9.1 10.4 74 2.4 S 32 39 17 21 1018.6 1018.7 0.2
23/01:30pm 14.2 8.2 10.0 76 2.2 SSW 32 39 17 21 1018.7 1018.8 0.2
23/01:00pm 14.4 8.5 10.6 78 2.0 SSW 32 39 17 21 1019.0 1019.1 0.2
23/12:30pm 14.5 8.8 9.9 74 2.4 SSW 30 35 16 19 1019.4 1019.5 0.2
23/12:00pm 13.5 8.4 10.5 82 1.6 SSW 28 32 15 17 1019.9 1020.0 0.2
23/11:30am 13.4 9.6 11.1 86 1.2 SSW 22 28 12 15 1020.4 1020.5 0.2
23/11:00am 12.4 8.1 10.8 90 0.8 SSW 24 30 13 16 1020.8 1020.8 0.0
23/10:30am 12.2 8.3 10.9 92 0.7 SSW 22 30 12 16 1020.7 1020.7 0.0

Other formats

Comma delimited format used in spreadsheet applications
http://www.bom.gov.au/fwo/IDV60801/IDV60801.94827.axf

JavaScript Object Notation format (JSON) in row-major order
http://www.bom.gov.au/fwo/IDV60801/IDV60801.94827.json

Data quality

Most of these data are generated automatically and are frequently updated. Quality checks on data are not normally performed. It is possible for incorrect values to appear. Refer to information at About Latest Weather Observations and please check the disclaimer before using these data.